createdAt,value
2018-10-05T00:01:11.370Z,6.37
2018-10-05T00:03:40.486Z,7.10
2018-10-05T00:06:09.748Z,6.72
2018-10-05T00:08:38.980Z,7.53
2018-10-05T00:11:08.301Z,7.20
2018-10-05T00:13:37.409Z,5.12
2018-10-05T00:16:06.536Z,7.92
2018-10-05T00:18:35.691Z,7.12
2018-10-05T00:21:04.770Z,9.93
2018-10-05T00:23:33.688Z,4.03
2018-10-05T00:26:02.888Z,7.42
2018-10-05T00:28:31.980Z,6.10
2018-10-05T00:31:01.417Z,8.08
2018-10-05T00:33:30.724Z,10.30
2018-10-05T00:35:59.914Z,5.83
2018-10-05T00:38:29.035Z,8.83
2018-10-05T00:40:59.886Z,12.15
2018-10-05T00:43:30.091Z,10.60
2018-10-05T00:45:59.249Z,10.85
2018-10-05T00:48:28.390Z,7.70
2018-10-05T00:50:57.652Z,11.75
2018-10-05T00:53:26.766Z,12.30
2018-10-05T00:55:55.919Z,11.50
2018-10-05T00:58:25.234Z,7.05
2018-10-05T01:00:54.426Z,6.53
2018-10-05T01:03:23.647Z,5.95
2018-10-05T01:05:53.157Z,12.23
2018-10-05T01:08:22.222Z,9.20
2018-10-05T01:10:51.303Z,6.65
2018-10-05T01:13:20.427Z,10.75
2018-10-05T01:15:49.451Z,9.90
2018-10-05T01:18:19.634Z,8.90
2018-10-05T01:20:49.803Z,9.00
2018-10-05T01:23:18.911Z,9.10
2018-10-05T01:25:48.105Z,11.75
2018-10-05T01:28:17.323Z,7.70
2018-10-05T01:30:46.503Z,5.55
2018-10-05T01:33:15.690Z,5.45
2018-10-05T01:35:44.906Z,4.55
2018-10-05T01:38:14.038Z,5.62
2018-10-05T01:40:43.369Z,7.28
2018-10-05T01:43:12.471Z,5.12
2018-10-05T01:45:41.738Z,11.78
2018-10-05T01:48:10.793Z,7.20
2018-10-05T01:50:39.847Z,6.33
2018-10-05T01:53:08.971Z,10.95
2018-10-05T01:55:37.986Z,11.78
2018-10-05T01:58:07.090Z,12.78
2018-10-05T02:00:36.210Z,6.90
2018-10-05T02:03:05.450Z,7.05
2018-10-05T02:05:34.742Z,10.93
2018-10-05T02:08:03.982Z,7.53
2018-10-05T02:10:32.974Z,8.58
2018-10-05T02:13:02.318Z,7.97
2018-10-05T02:15:31.491Z,8.28
2018-10-05T02:18:00.495Z,8.40
2018-10-05T02:20:30.610Z,8.30
2018-10-05T02:23:00.400Z,6.80
2018-10-05T02:25:29.435Z,10.10
2018-10-05T02:27:58.815Z,5.97
2018-10-05T02:30:28.000Z,7.17
2018-10-05T02:32:57.150Z,9.33
2018-10-05T02:35:26.289Z,7.97
2018-10-05T02:37:55.471Z,7.05
2018-10-05T02:40:24.560Z,8.80
2018-10-05T02:42:53.562Z,12.50
2018-10-05T02:45:22.615Z,9.53
2018-10-05T02:47:51.723Z,13.55
2018-10-05T02:50:21.219Z,9.15
2018-10-05T02:52:50.350Z,8.95
2018-10-05T02:55:19.446Z,10.50
2018-10-05T02:57:48.943Z,11.85
2018-10-05T03:00:28.926Z,13.83
2018-10-05T03:02:58.664Z,7.67
2018-10-05T03:05:27.770Z,7.97
2018-10-05T03:07:57.014Z,11.60
2018-10-05T03:10:26.188Z,9.65
2018-10-05T03:12:55.207Z,8.73
2018-10-05T03:15:24.279Z,9.78
2018-10-05T03:17:53.642Z,16.50
2018-10-05T03:20:22.652Z,9.90
2018-10-05T03:22:52.244Z,7.30
2018-10-05T03:25:21.587Z,6.17
2018-10-05T03:27:50.741Z,10.38
2018-10-05T03:30:19.933Z,7.62
2018-10-05T03:32:48.974Z,12.53
2018-10-05T03:35:18.074Z,13.62
2018-10-05T03:37:47.131Z,11.38
2018-10-05T03:40:16.351Z,19.82
2018-10-05T03:42:45.514Z,15.53
2018-10-05T03:45:14.579Z,14.78
2018-10-05T03:47:43.649Z,16.55
2018-10-05T03:50:13.300Z,6.87
2018-10-05T03:52:42.531Z,7.30
2018-10-05T03:55:11.777Z,8.25
2018-10-05T03:57:40.830Z,10.55
2018-10-05T04:00:09.964Z,9.73
2018-10-05T04:02:39.278Z,7.25
2018-10-05T04:05:08.424Z,13.35
2018-10-05T04:07:37.586Z,8.40
2018-10-05T04:10:07.078Z,16.70
2018-10-05T04:12:36.138Z,17.17
2018-10-05T04:15:05.345Z,18.45
2018-10-05T04:17:34.739Z,17.82
2018-10-05T04:20:03.922Z,17.10
2018-10-05T04:22:33.030Z,18.10
2018-10-05T04:25:02.416Z,18.05
2018-10-05T04:27:31.221Z,21.55
2018-10-05T04:30:00.389Z,21.73
2018-10-05T04:32:29.616Z,27.60
2018-10-05T04:34:58.886Z,18.32
2018-10-05T04:37:28.008Z,20.02
2018-10-05T04:39:57.423Z,17.20
2018-10-05T04:42:26.687Z,15.10
2018-10-05T04:44:55.818Z,21.17
2018-10-05T04:47:25.371Z,22.80
2018-10-05T04:49:54.393Z,15.72
2018-10-05T04:52:23.551Z,17.50
2018-10-05T04:54:52.945Z,17.62
2018-10-05T04:57:22.072Z,16.27
2018-10-05T04:59:51.387Z,13.35
2018-10-05T05:02:20.622Z,14.07
2018-10-05T05:04:49.736Z,21.42
2018-10-05T05:07:18.987Z,27.85
2018-10-05T05:09:48.366Z,24.98
2018-10-05T05:12:48.447Z,15.63
2018-10-05T05:15:17.467Z,17.40
2018-10-05T05:17:46.575Z,20.52
2018-10-05T05:20:15.707Z,24.87
2018-10-05T05:22:45.390Z,23.05
2018-10-05T05:25:14.511Z,23.92
2018-10-05T05:27:43.437Z,13.70
2018-10-05T05:30:12.959Z,19.70
2018-10-05T05:32:42.219Z,21.12
2018-10-05T05:35:11.531Z,16.40
2018-10-05T05:37:40.689Z,12.13
2018-10-05T05:40:09.980Z,24.82
2018-10-05T05:42:39.127Z,25.27
2018-10-05T05:45:08.779Z,23.95
2018-10-05T05:47:37.862Z,13.55
2018-10-05T05:50:06.951Z,17.73
2018-10-05T05:52:36.244Z,37.73
2018-10-05T05:55:05.394Z,19.32
2018-10-05T05:57:34.456Z,21.35
2018-10-05T06:00:04.120Z,15.80
2018-10-05T06:02:33.504Z,21.90
2018-10-05T06:05:02.563Z,22.62
2018-10-05T06:07:32.027Z,20.97
2018-10-05T06:10:01.216Z,23.35
2018-10-05T06:12:30.414Z,21.30
2018-10-05T06:14:59.904Z,17.48
2018-10-05T06:17:28.787Z,18.85
2018-10-05T06:19:57.799Z,11.22
2018-10-05T06:22:27.576Z,13.25
2018-10-05T06:24:56.511Z,20.65
2018-10-05T06:27:25.596Z,14.20
2018-10-05T06:29:55.335Z,17.40
2018-10-05T06:32:24.462Z,17.57
2018-10-05T06:34:53.571Z,17.92
2018-10-05T06:37:25.713Z,17.98
2018-10-05T06:39:54.830Z,18.73
2018-10-05T06:42:24.049Z,14.78
2018-10-05T06:44:53.617Z,14.03
2018-10-05T06:47:22.783Z,14.50
2018-10-05T06:49:52.016Z,15.03
2018-10-05T06:52:21.178Z,12.53
2018-10-05T06:54:50.286Z,16.85
2018-10-05T06:57:19.099Z,18.32
2018-10-05T06:59:48.584Z,17.00
2018-10-05T07:02:17.408Z,21.80
2018-10-05T07:04:46.687Z,24.18
2018-10-05T07:07:16.011Z,24.92
2018-10-05T07:09:45.381Z,17.70
2018-10-05T07:12:14.692Z,19.05
2018-10-05T07:14:44.264Z,22.20
2018-10-05T07:17:13.380Z,14.00
2018-10-05T07:19:42.463Z,18.80
2018-10-05T07:22:11.651Z,17.80
2018-10-05T07:24:40.834Z,16.23
2018-10-05T07:27:10.055Z,21.65
2018-10-05T07:29:39.453Z,19.00
2018-10-05T07:32:08.592Z,16.97
2018-10-05T07:34:37.680Z,16.12
2018-10-05T07:37:07.261Z,14.80
2018-10-05T07:39:36.454Z,17.62
2018-10-05T07:42:05.671Z,12.98
2018-10-05T07:44:34.922Z,13.40
2018-10-05T07:47:03.926Z,18.17
2018-10-05T07:49:33.023Z,17.27
2018-10-05T07:52:02.315Z,13.75
2018-10-05T07:54:31.554Z,15.40
2018-10-05T07:57:00.626Z,11.85
2018-10-05T07:59:30.062Z,11.63
2018-10-05T08:01:59.277Z,12.78
2018-10-05T08:04:28.384Z,15.80
2018-10-05T08:06:57.652Z,15.60
2018-10-05T08:09:26.838Z,12.07
2018-10-05T08:11:55.915Z,10.58
2018-10-05T08:14:25.394Z,14.95
2018-10-05T08:16:54.568Z,12.90
2018-10-05T08:19:23.675Z,11.73
2018-10-05T08:21:53.203Z,9.90
2018-10-05T08:24:22.271Z,14.78
2018-10-05T08:26:51.482Z,9.33
2018-10-05T08:29:21.096Z,6.45
2018-10-05T08:31:50.005Z,5.28
2018-10-05T08:34:19.212Z,6.35
2018-10-05T08:36:48.712Z,5.47
2018-10-05T08:39:17.985Z,6.58
2018-10-05T08:41:47.191Z,7.78
2018-10-05T08:44:16.594Z,12.05
2018-10-05T08:46:45.731Z,7.67
2018-10-05T08:49:14.991Z,13.10
2018-10-05T08:51:44.539Z,5.55
2018-10-05T08:54:13.569Z,9.70
2018-10-05T08:56:42.874Z,7.00
2018-10-05T08:59:12.450Z,8.18
2018-10-05T09:01:41.494Z,7.15
2018-10-05T09:04:10.550Z,8.58
2018-10-05T09:06:40.051Z,8.85
2018-10-05T09:09:09.276Z,6.67
2018-10-05T09:11:38.203Z,3.70
2018-10-05T09:14:07.831Z,3.40
2018-10-05T09:16:36.903Z,3.25
2018-10-05T09:19:06.085Z,3.37
2018-10-05T09:21:35.636Z,4.10
2018-10-05T09:24:04.928Z,6.78
2018-10-05T09:26:34.037Z,3.72
2018-10-05T09:29:03.463Z,5.00
2018-10-05T09:31:32.599Z,3.87
2018-10-05T09:34:01.797Z,3.42
2018-10-05T09:36:31.175Z,8.00
2018-10-05T09:39:00.487Z,2.45
2018-10-05T09:41:29.498Z,4.35
2018-10-05T09:43:58.914Z,6.05
2018-10-05T09:46:28.095Z,4.55
2018-10-05T09:48:57.241Z,8.78
2018-10-05T09:51:26.555Z,5.12
2018-10-05T09:53:55.698Z,5.40
2018-10-05T09:56:24.846Z,5.45
2018-10-05T09:58:54.186Z,13.10
2018-10-05T10:01:28.321Z,4.92
2018-10-05T10:03:57.542Z,5.72
2018-10-05T10:06:26.617Z,7.25
2018-10-05T10:08:55.807Z,8.15
2018-10-05T10:11:25.174Z,1.65
2018-10-05T10:13:54.358Z,3.70
2018-10-05T10:16:23.499Z,3.87
2018-10-05T10:18:52.983Z,1.30
2018-10-05T10:21:21.938Z,14.83
2018-10-05T10:23:51.092Z,13.75
2018-10-05T10:26:20.623Z,5.25
2018-10-05T10:28:49.882Z,3.20
2018-10-05T10:31:18.908Z,7.05
2018-10-05T10:33:48.541Z,2.75
2018-10-05T10:36:17.703Z,2.67
2018-10-05T10:38:46.997Z,7.00
2018-10-05T10:41:16.325Z,7.28
2018-10-05T10:43:45.391Z,4.92
2018-10-05T10:46:14.414Z,2.50
2018-10-05T10:48:43.607Z,2.08
2018-10-05T10:51:12.862Z,6.03
2018-10-05T10:53:42.120Z,2.70
2018-10-05T10:56:11.623Z,2.37
2018-10-05T10:58:40.767Z,3.72
2018-10-05T11:01:10.585Z,7.53
2018-10-05T11:03:39.813Z,1.40
2018-10-05T11:06:09.043Z,3.05
2018-10-05T11:08:38.178Z,3.42
2018-10-05T11:11:07.168Z,3.12
2018-10-05T11:13:36.326Z,3.37
2018-10-05T11:16:05.554Z,3.87
2018-10-05T11:18:34.705Z,4.87
2018-10-05T11:21:03.736Z,3.42
2018-10-05T11:23:32.918Z,2.05
2018-10-05T11:26:01.975Z,7.95
2018-10-05T11:28:31.022Z,3.25
2018-10-05T11:31:00.385Z,3.27
2018-10-05T11:33:29.483Z,2.45
2018-10-05T11:35:58.702Z,4.65
2018-10-05T11:38:28.052Z,4.12
2018-10-05T11:40:57.025Z,3.02
2018-10-05T11:43:26.198Z,5.75
2018-10-05T11:45:56.578Z,3.45
2018-10-05T11:48:26.140Z,2.40
2018-10-05T11:50:55.250Z,2.98
2018-10-05T11:53:24.479Z,3.15
2018-10-05T11:55:53.520Z,2.25
2018-10-05T11:58:22.790Z,3.98
2018-10-05T12:00:52.050Z,2.98
2018-10-05T12:03:21.279Z,5.67
2018-10-05T12:05:50.543Z,2.55
2018-10-05T12:08:20.055Z,2.10
2018-10-05T12:10:49.236Z,4.62
2018-10-05T12:13:18.379Z,2.92
2018-10-05T12:15:47.468Z,3.12
2018-10-05T12:18:16.632Z,1.77
2018-10-05T12:20:45.635Z,4.22
2018-10-05T12:23:15.046Z,2.55
2018-10-05T12:25:44.227Z,4.40
2018-10-05T12:28:13.161Z,2.05
2018-10-05T12:30:43.472Z,3.60
2018-10-05T12:33:12.719Z,7.22
2018-10-05T12:35:41.820Z,3.20
2018-10-05T12:38:14.340Z,3.00
2018-10-05T12:40:43.427Z,1.57
2018-10-05T12:43:12.533Z,1.30
2018-10-05T12:45:41.811Z,5.55
2018-10-05T12:48:10.983Z,5.05
2018-10-05T12:50:40.046Z,3.40
2018-10-05T12:53:09.354Z,1.92
2018-10-05T12:55:38.599Z,4.05
2018-10-05T12:58:07.811Z,3.35
2018-10-05T13:00:37.066Z,2.80
2018-10-05T13:03:06.115Z,1.25
2018-10-05T13:05:35.374Z,3.27
2018-10-05T13:08:04.899Z,5.78
2018-10-05T13:10:34.198Z,5.28
2018-10-05T13:13:03.449Z,8.95
2018-10-05T13:15:32.931Z,7.33
2018-10-05T13:18:02.163Z,2.50
2018-10-05T13:20:31.238Z,3.70
2018-10-05T13:23:00.634Z,2.92
2018-10-05T13:25:29.716Z,2.42
2018-10-05T13:27:58.819Z,2.85
2018-10-05T13:30:28.330Z,4.47
2018-10-05T13:32:57.523Z,5.28
2018-10-05T13:35:26.537Z,4.25
2018-10-05T13:37:55.855Z,2.65
2018-10-05T13:40:25.003Z,4.08
2018-10-05T13:42:54.714Z,2.67
2018-10-05T13:45:24.156Z,4.87
2018-10-05T13:47:53.243Z,1.50
2018-10-05T13:50:22.437Z,7.03
2018-10-05T13:52:52.115Z,3.35
2018-10-05T13:55:21.127Z,2.87
2018-10-05T13:57:50.263Z,1.45
2018-10-05T14:00:19.810Z,3.58
2018-10-05T14:02:49.097Z,8.18
2018-10-05T14:05:18.233Z,3.33
2018-10-05T14:07:47.702Z,2.60
2018-10-05T14:10:16.760Z,2.15
2018-10-05T14:12:45.763Z,2.95
2018-10-05T14:15:15.162Z,2.75
2018-10-05T14:17:44.433Z,3.25
2018-10-05T14:20:13.524Z,4.53
2018-10-05T14:22:42.787Z,2.47
2018-10-05T14:25:12.030Z,3.50
2018-10-05T14:27:41.274Z,5.30
2018-10-05T14:30:10.718Z,2.55
2018-10-05T14:32:39.912Z,4.50
2018-10-05T14:35:09.041Z,7.83
2018-10-05T14:37:38.655Z,2.70
2018-10-05T14:40:07.741Z,5.35
2018-10-05T14:42:37.055Z,4.90
2018-10-05T14:45:06.407Z,8.53
2018-10-05T14:47:35.620Z,5.92
2018-10-05T14:50:04.830Z,5.87
2018-10-05T14:52:34.175Z,10.82
2018-10-05T14:55:03.260Z,16.17
2018-10-05T14:57:32.461Z,26.45
2018-10-05T15:00:01.639Z,22.67
2018-10-05T15:02:30.825Z,6.33
2018-10-05T15:04:59.955Z,1.82
2018-10-05T15:07:29.330Z,3.22
2018-10-05T15:09:58.361Z,17.27
2018-10-05T15:12:27.520Z,10.70
2018-10-05T15:14:56.842Z,15.08
2018-10-05T15:17:25.975Z,6.92
2018-10-05T15:19:55.099Z,3.98
2018-10-05T15:22:24.439Z,3.27
2018-10-05T15:24:53.622Z,4.65
2018-10-05T15:27:22.804Z,4.65
2018-10-05T15:29:52.058Z,10.82
2018-10-05T15:32:21.301Z,3.65
2018-10-05T15:34:50.731Z,1.57
2018-10-05T15:37:20.204Z,2.17
2018-10-05T15:39:49.441Z,8.98
2018-10-05T15:42:18.726Z,3.98
2018-10-05T15:44:48.283Z,3.83
2018-10-05T15:47:17.888Z,4.78
2018-10-05T15:49:47.287Z,2.92
2018-10-05T15:52:16.726Z,5.75
2018-10-05T15:54:45.975Z,6.10
2018-10-05T15:57:15.168Z,6.35
2018-10-05T15:59:44.435Z,1.98
2018-10-05T16:02:13.675Z,1.70
2018-10-05T16:04:42.866Z,4.12
2018-10-05T16:07:12.126Z,2.37
2018-10-05T16:09:41.226Z,2.72
2018-10-05T16:12:10.260Z,4.03
2018-10-05T16:14:38.951Z,2.50
2018-10-05T16:17:08.275Z,1.70
2018-10-05T16:19:40.324Z,1.77
2018-10-05T16:22:10.280Z,11.20
2018-10-05T16:24:42.141Z,4.15
2018-10-05T16:27:12.419Z,10.68
2018-10-05T16:29:41.366Z,2.33
2018-10-05T16:32:11.146Z,6.60
2018-10-05T16:34:40.463Z,3.55
2018-10-05T16:37:09.625Z,6.33
2018-10-05T16:39:38.716Z,1.42
2018-10-05T16:42:08.727Z,1.87
2018-10-05T16:44:37.719Z,4.15
2018-10-05T16:47:07.050Z,4.65
2018-10-05T16:49:36.312Z,4.25
2018-10-05T16:52:05.217Z,7.08
2018-10-05T16:54:34.064Z,3.05
2018-10-05T16:57:03.448Z,4.05
2018-10-05T16:59:33.140Z,5.45
2018-10-05T17:02:02.041Z,3.08
2018-10-05T17:04:31.444Z,5.03
2018-10-05T17:07:00.099Z,3.05
2018-10-05T17:09:29.083Z,3.22
2018-10-05T17:11:57.943Z,2.83
2018-10-05T17:14:27.271Z,1.80
2018-10-05T17:16:56.276Z,2.45
2018-10-05T17:19:25.607Z,6.70
2018-10-05T17:21:54.458Z,4.05
2018-10-05T17:24:23.588Z,5.42
2018-10-05T17:26:52.624Z,2.92
2018-10-05T17:29:21.827Z,6.35
2018-10-05T17:31:50.840Z,4.67
2018-10-05T17:34:20.618Z,3.52
2018-10-05T17:36:49.435Z,3.42
2018-10-05T17:39:18.314Z,6.60
2018-10-05T17:41:47.374Z,3.37
2018-10-05T17:44:16.338Z,8.73
2018-10-05T17:46:45.975Z,6.83
2018-10-05T17:49:15.271Z,4.03
2018-10-05T17:51:44.334Z,5.92
2018-10-05T17:54:13.247Z,5.92
2018-10-05T17:56:42.476Z,5.75
2018-10-05T17:59:11.549Z,7.95
2018-10-05T18:01:40.561Z,4.95
2018-10-05T18:04:09.596Z,4.12
2018-10-05T18:06:38.651Z,7.12
2018-10-05T18:09:07.882Z,3.62
2018-10-05T18:11:36.875Z,5.33
2018-10-05T18:14:05.656Z,3.98
2018-10-05T18:16:34.835Z,3.17
2018-10-05T18:19:04.147Z,6.60
2018-10-05T18:21:33.282Z,3.25
2018-10-05T18:24:02.338Z,5.33
2018-10-05T18:26:31.535Z,4.20
2018-10-05T18:29:00.780Z,3.10
2018-10-05T18:31:29.813Z,3.77
2018-10-05T18:33:59.278Z,4.75
2018-10-05T18:36:28.362Z,5.70
2018-10-05T18:38:58.153Z,5.15
2018-10-05T18:41:27.781Z,5.67
2018-10-05T18:43:56.640Z,6.62
2018-10-05T18:46:25.806Z,4.60
2018-10-05T18:48:55.004Z,9.43
2018-10-05T18:51:24.104Z,4.65
2018-10-05T18:53:52.956Z,7.47
2018-10-05T18:56:33.095Z,12.80
2018-10-05T18:59:02.477Z,5.45
2018-10-05T19:01:31.350Z,6.15
2018-10-05T19:04:00.556Z,10.50
2018-10-05T19:06:29.466Z,8.45
2018-10-05T19:08:58.392Z,7.45
2018-10-05T19:11:27.643Z,4.92
2018-10-05T19:13:57.191Z,9.88
2018-10-05T19:16:26.863Z,5.85
2018-10-05T19:18:56.451Z,6.10
2018-10-05T19:21:30.002Z,11.75
2018-10-05T19:24:02.688Z,6.37
2018-10-05T19:26:33.344Z,7.75
2018-10-05T19:29:02.387Z,7.87
2018-10-05T19:31:32.067Z,9.00
2018-10-05T19:34:01.795Z,5.78
2018-10-05T19:36:30.545Z,8.03
2018-10-05T19:39:02.469Z,8.55
2018-10-05T19:41:31.565Z,6.78
2018-10-05T19:44:00.672Z,15.40
2018-10-05T19:46:30.398Z,8.50
2018-10-05T19:49:00.095Z,4.92
2018-10-05T19:51:30.104Z,7.95
2018-10-05T19:53:59.335Z,6.90
2018-10-05T19:56:28.307Z,10.50
2018-10-05T19:58:57.187Z,4.37
2018-10-05T20:01:26.434Z,9.33
2018-10-05T20:03:55.620Z,8.95
2018-10-05T20:06:24.588Z,5.90
2018-10-05T20:08:53.798Z,7.70
2018-10-05T20:11:23.056Z,6.75
2018-10-05T20:13:51.687Z,8.00
2018-10-05T20:16:21.432Z,12.43
2018-10-05T20:18:50.389Z,9.30
2018-10-05T20:21:19.267Z,7.62
2018-10-05T20:23:48.474Z,7.80
2018-10-05T20:26:17.243Z,13.22
2018-10-05T20:28:46.756Z,7.97
2018-10-05T20:31:15.976Z,8.68
2018-10-05T20:33:45.055Z,8.75
2018-10-05T20:36:14.280Z,6.37
2018-10-05T20:38:43.085Z,5.78
2018-10-05T20:41:12.038Z,5.50
2018-10-05T20:43:40.903Z,6.33
2018-10-05T20:46:09.655Z,5.35
2018-10-05T20:48:38.765Z,5.78
2018-10-05T20:51:08.435Z,7.80
2018-10-05T20:53:38.019Z,7.53
2018-10-05T20:56:07.203Z,4.87
2018-10-05T20:58:36.099Z,4.65
2018-10-05T21:01:05.467Z,5.78
2018-10-05T21:03:34.429Z,7.65
2018-10-05T21:06:03.491Z,11.93
2018-10-05T21:08:33.035Z,6.40
2018-10-05T21:11:02.467Z,7.47
2018-10-05T21:13:31.275Z,7.05
2018-10-05T21:16:00.286Z,6.37
2018-10-05T21:18:29.312Z,7.90
2018-10-05T21:20:58.099Z,8.43
2018-10-05T21:23:30.823Z,3.60
2018-10-05T21:26:00.197Z,4.17
2018-10-05T21:28:29.319Z,5.05
2018-10-05T21:30:58.167Z,5.85
2018-10-05T21:33:27.091Z,5.35
2018-10-05T21:35:56.375Z,4.30
2018-10-05T21:38:25.236Z,8.35
2018-10-05T21:40:54.057Z,6.62
2018-10-05T21:43:22.991Z,3.50
2018-10-05T21:45:51.726Z,7.10
2018-10-05T21:48:20.733Z,5.00
2018-10-05T21:50:50.092Z,5.67
2018-10-05T21:53:19.045Z,5.45
2018-10-05T21:55:48.120Z,4.03
2018-10-05T21:58:17.381Z,7.22
2018-10-05T22:00:46.419Z,5.03
2018-10-05T22:03:15.718Z,3.62
2018-10-05T22:05:45.129Z,4.97
2018-10-05T22:08:14.707Z,3.77
2018-10-05T22:10:43.814Z,6.25
2018-10-05T22:13:13.195Z,4.50
2018-10-05T22:15:42.207Z,5.35
2018-10-05T22:18:11.031Z,9.60
2018-10-05T22:20:40.131Z,4.20
2018-10-05T22:23:09.308Z,5.40
2018-10-05T22:25:38.302Z,6.05
2018-10-05T22:28:07.400Z,6.25
2018-10-05T22:30:36.192Z,6.50
2018-10-05T22:33:05.094Z,3.50
2018-10-05T22:35:34.895Z,4.95
2018-10-05T22:38:03.844Z,8.40
2018-10-05T22:40:33.712Z,5.67
2018-10-05T22:43:03.010Z,5.00
2018-10-05T22:45:32.107Z,4.22
2018-10-05T22:48:01.579Z,6.15
2018-10-05T22:50:30.444Z,4.62
2018-10-05T22:52:59.813Z,9.88
2018-10-05T22:55:28.654Z,8.48
2018-10-05T22:57:58.363Z,4.95
2018-10-05T23:00:27.595Z,8.00
2018-10-05T23:02:56.942Z,8.08
2018-10-05T23:05:25.872Z,3.75
2018-10-05T23:07:54.619Z,5.72
2018-10-05T23:10:24.109Z,4.50
2018-10-05T23:12:53.282Z,6.08
2018-10-05T23:15:22.340Z,8.53
2018-10-05T23:17:51.415Z,6.30
2018-10-05T23:20:20.324Z,9.95
2018-10-05T23:22:49.388Z,12.80
2018-10-05T23:25:18.752Z,5.50
2018-10-05T23:27:48.704Z,6.00
2018-10-05T23:30:18.095Z,7.83
2018-10-05T23:32:47.446Z,7.45
2018-10-05T23:35:17.398Z,11.03
2018-10-05T23:37:46.366Z,5.30
2018-10-05T23:40:15.520Z,8.30
2018-10-05T23:42:44.546Z,7.90
2018-10-05T23:45:13.507Z,3.27
2018-10-05T23:47:42.527Z,7.78
2018-10-05T23:50:11.525Z,5.45
2018-10-05T23:52:48.620Z,7.28
2018-10-05T23:55:17.653Z,4.58
2018-10-05T23:57:47.088Z,3.87
